createdAt,value
2023-03-01T00:01:45.787Z,12.90
2023-03-01T00:04:19.109Z,13.80
2023-03-01T00:06:52.937Z,13.20
2023-03-01T00:09:26.240Z,12.50
2023-03-01T00:11:58.954Z,8.70
2023-03-01T00:14:31.848Z,10.40
2023-03-01T00:17:04.928Z,11.80
2023-03-01T00:19:38.169Z,12.20
2023-03-01T00:22:11.448Z,11.10
2023-03-01T00:24:44.489Z,12.50
2023-03-01T00:27:17.937Z,11.90
2023-03-01T00:29:52.036Z,11.40
2023-03-01T00:32:25.784Z,12.40
2023-03-01T00:34:58.842Z,10.20
2023-03-01T00:37:32.272Z,12.90
2023-03-01T00:40:08.323Z,3.90
2023-03-01T00:42:41.788Z,6.70
2023-03-01T00:45:15.975Z,9.10
2023-03-01T00:47:49.296Z,6.90
2023-03-01T00:50:23.412Z,8.90
2023-03-01T00:52:59.494Z,10.50
2023-03-01T00:55:32.792Z,8.10
2023-03-01T00:58:06.083Z,10.30
2023-03-01T01:00:39.164Z,9.20
2023-03-01T01:03:12.496Z,5.90
2023-03-01T01:05:46.313Z,10.80
2023-03-01T01:08:19.689Z,10.90
2023-03-01T01:10:53.297Z,8.40
2023-03-01T01:13:26.562Z,10.60
2023-03-01T01:16:05.159Z,11.40
2023-03-01T01:18:39.029Z,11.10
2023-03-01T01:21:14.470Z,7.60
2023-03-01T01:23:48.674Z,5.70
2023-03-01T01:26:32.306Z,11.40
2023-03-01T01:29:07.228Z,9.20
2023-03-01T01:31:42.129Z,7.30
2023-03-01T01:34:19.747Z,4.60
2023-03-01T01:36:55.955Z,8.10
2023-03-01T01:39:29.539Z,9.40
2023-03-01T01:42:04.581Z,7.40
2023-03-01T01:44:38.205Z,8.70
2023-03-01T01:47:31.187Z,8.50
2023-03-01T01:50:05.618Z,9.00
2023-03-01T01:52:40.626Z,9.00
2023-03-01T01:55:19.026Z,9.50
2023-03-01T01:57:59.333Z,5.90
2023-03-01T02:00:33.432Z,8.90
2023-03-01T02:03:20.630Z,9.00
2023-03-01T02:06:08.223Z,9.20
2023-03-01T02:08:43.958Z,9.50
2023-03-01T02:11:18.811Z,8.60
2023-03-01T02:13:57.010Z,11.40
2023-03-01T02:16:31.270Z,11.00
2023-03-01T02:19:06.638Z,12.30
2023-03-01T02:22:05.044Z,11.80
2023-03-01T02:25:05.507Z,12.70
2023-03-01T02:28:00.722Z,12.60
2023-03-01T02:30:35.721Z,12.60
2023-03-01T02:33:10.775Z,13.80
2023-03-01T02:35:45.097Z,14.50
2023-03-01T02:38:19.720Z,13.60
2023-03-01T02:40:55.171Z,13.90
2023-03-01T02:43:34.303Z,12.90
2023-03-01T02:46:25.404Z,12.80
2023-03-01T02:49:00.630Z,13.00
2023-03-01T02:51:36.842Z,12.70
2023-03-01T02:54:28.396Z,12.90
2023-03-01T02:57:02.356Z,12.50
2023-03-01T02:59:43.005Z,11.30
2023-03-01T03:02:41.871Z,12.30
2023-03-01T03:05:26.283Z,11.60
2023-03-01T03:08:04.873Z,12.60
2023-03-01T03:10:44.853Z,12.10
2023-03-01T03:13:18.870Z,11.30
2023-03-01T03:15:52.860Z,12.00
2023-03-01T03:18:27.424Z,11.50
2023-03-01T03:21:00.712Z,11.10
2023-03-01T03:23:33.904Z,11.10
2023-03-01T03:26:09.940Z,12.20
2023-03-01T03:28:43.329Z,12.80
2023-03-01T03:31:16.243Z,12.80
2023-03-01T03:33:49.551Z,11.60
2023-03-01T03:36:25.452Z,12.20
2023-03-01T03:38:58.709Z,12.90
2023-03-01T03:41:31.724Z,13.40
2023-03-01T03:44:04.830Z,13.30
2023-03-01T03:46:37.909Z,13.10
2023-03-01T03:49:10.938Z,13.20
2023-03-01T03:51:44.876Z,12.20
2023-03-01T03:54:19.085Z,13.50
2023-03-01T03:56:53.219Z,14.10
2023-03-01T03:59:26.903Z,7.60
2023-03-01T04:02:00.766Z,12.40
2023-03-01T04:04:34.931Z,12.60
2023-03-01T04:07:08.541Z,9.70
2023-03-01T04:09:44.280Z,13.00
2023-03-01T04:12:22.488Z,13.20
2023-03-01T04:14:56.611Z,11.90
2023-03-01T04:17:30.559Z,11.50
2023-03-01T04:20:07.588Z,12.20
2023-03-01T04:22:42.574Z,12.70
2023-03-01T04:25:16.712Z,10.90
2023-03-01T04:27:50.693Z,12.60
2023-03-01T04:30:27.213Z,7.80
2023-03-01T04:33:01.153Z,10.40
2023-03-01T04:35:36.065Z,11.50
2023-03-01T04:38:09.662Z,12.90
2023-03-01T04:40:44.787Z,11.50
2023-03-01T04:43:19.022Z,11.90
2023-03-01T04:45:52.427Z,11.70
2023-03-01T04:48:25.439Z,11.90
2023-03-01T04:50:58.844Z,12.00
2023-03-01T04:53:32.401Z,13.00
2023-03-01T04:56:06.050Z,11.30
2023-03-01T04:58:39.586Z,11.30
2023-03-01T05:01:20.819Z,11.90
2023-03-01T05:03:56.086Z,12.20
2023-03-01T05:06:30.124Z,12.10
2023-03-01T05:09:03.472Z,11.50
2023-03-01T05:11:37.587Z,12.40
2023-03-01T05:14:12.186Z,12.00
2023-03-01T05:16:55.520Z,12.50
2023-03-01T05:19:28.811Z,12.00
2023-03-01T05:22:05.383Z,12.70
2023-03-01T05:24:40.066Z,13.70
2023-03-01T05:27:14.887Z,13.10
2023-03-01T05:29:49.046Z,13.40
2023-03-01T05:32:22.951Z,13.40
2023-03-01T05:34:56.637Z,13.30
2023-03-01T05:37:31.174Z,11.50
2023-03-01T05:40:06.726Z,13.00
2023-03-01T05:42:40.213Z,7.80
2023-03-01T05:45:14.486Z,13.10
2023-03-01T05:47:49.603Z,12.40
2023-03-01T05:50:29.500Z,13.60
2023-03-01T05:53:07.408Z,12.70
2023-03-01T05:55:41.629Z,8.20
2023-03-01T05:58:20.916Z,14.20
2023-03-01T06:00:55.895Z,12.60
2023-03-01T06:03:30.521Z,10.70
2023-03-01T06:06:04.210Z,12.70
2023-03-01T06:08:38.550Z,11.90
2023-03-01T06:11:12.310Z,14.50
2023-03-01T06:13:47.234Z,14.20
2023-03-01T06:16:20.915Z,12.90
2023-03-01T06:18:54.294Z,12.20
2023-03-01T06:21:27.591Z,5.60
2023-03-01T06:24:02.712Z,11.60
2023-03-01T06:26:36.132Z,7.20
2023-03-01T06:29:10.106Z,11.60
2023-03-01T06:31:43.146Z,12.40
2023-03-01T06:34:16.743Z,11.80
2023-03-01T06:36:50.511Z,12.10
2023-03-01T06:39:23.514Z,10.50
2023-03-01T06:41:56.864Z,9.60
2023-03-01T06:44:30.638Z,8.90
2023-03-01T06:47:03.761Z,10.40
2023-03-01T06:49:37.179Z,11.20
2023-03-01T06:52:10.407Z,11.90
2023-03-01T06:54:44.040Z,10.80
2023-03-01T06:57:17.361Z,10.10
2023-03-01T06:59:51.429Z,9.90
2023-03-01T07:02:25.563Z,10.10
2023-03-01T07:04:59.351Z,6.60
2023-03-01T07:07:32.972Z,10.40
2023-03-01T07:10:06.693Z,10.40
2023-03-01T07:12:40.061Z,7.60
2023-03-01T07:15:13.974Z,9.80
2023-03-01T07:17:49.568Z,8.90
2023-03-01T07:20:26.911Z,10.10
2023-03-01T07:23:00.392Z,9.80
2023-03-01T07:25:34.039Z,11.10
2023-03-01T07:28:07.293Z,9.50
2023-03-01T07:30:41.745Z,10.30
2023-03-01T07:33:14.865Z,9.60
2023-03-01T07:35:48.500Z,8.70
2023-03-01T07:38:22.102Z,11.20
2023-03-01T07:40:56.051Z,9.80
2023-03-01T07:43:30.178Z,11.00
2023-03-01T07:46:07.686Z,10.20
2023-03-01T07:48:40.763Z,9.30
2023-03-01T07:51:14.314Z,9.90
2023-03-01T07:53:49.943Z,8.90
2023-03-01T07:56:23.964Z,10.60
2023-03-01T07:58:57.713Z,10.60
2023-03-01T08:01:31.252Z,9.80
2023-03-01T08:04:09.015Z,9.90
2023-03-01T08:06:42.646Z,8.90
2023-03-01T08:09:16.130Z,11.30
2023-03-01T08:11:49.438Z,7.80
2023-03-01T08:14:22.568Z,9.10
2023-03-01T08:16:59.837Z,10.00
2023-03-01T08:19:34.757Z,10.90
2023-03-01T08:22:08.546Z,10.20
2023-03-01T08:24:42.285Z,9.60
2023-03-01T08:27:17.583Z,10.50
2023-03-01T08:29:51.320Z,9.50
2023-03-01T08:32:24.556Z,11.80
2023-03-01T08:34:57.972Z,7.20
2023-03-01T08:37:32.630Z,7.30
2023-03-01T08:40:08.682Z,9.80
2023-03-01T08:42:42.198Z,9.70
2023-03-01T08:45:19.937Z,8.30
2023-03-01T08:47:56.355Z,8.30
2023-03-01T08:50:29.834Z,10.00
2023-03-01T08:53:03.440Z,9.10
2023-03-01T08:55:36.669Z,8.70
2023-03-01T08:58:09.987Z,5.30
2023-03-01T09:00:43.206Z,5.80
2023-03-01T09:03:16.479Z,8.70
2023-03-01T09:05:51.709Z,9.70
2023-03-01T09:08:25.165Z,9.00
2023-03-01T09:10:58.996Z,8.50
2023-03-01T09:13:33.206Z,9.50
2023-03-01T09:16:08.251Z,10.10
2023-03-01T09:18:41.894Z,8.60
2023-03-01T09:21:20.998Z,7.30
2023-03-01T09:24:01.970Z,5.50
2023-03-01T09:26:35.715Z,5.90
2023-03-01T09:29:11.320Z,5.80
2023-03-01T09:31:45.324Z,7.60
2023-03-01T09:34:26.126Z,6.20
2023-03-01T09:37:04.127Z,10.20
2023-03-01T09:39:38.965Z,4.40
2023-03-01T09:42:17.846Z,10.40
2023-03-01T09:45:04.978Z,10.90
2023-03-01T09:47:39.918Z,9.40
2023-03-01T09:50:23.243Z,6.20
2023-03-01T09:53:17.938Z,8.30
2023-03-01T09:55:54.076Z,6.30
2023-03-01T09:58:44.695Z,10.40
2023-03-01T10:01:26.943Z,9.50
2023-03-01T10:04:31.910Z,8.80
2023-03-01T10:07:20.910Z,9.00
2023-03-01T10:09:54.076Z,9.40
2023-03-01T10:12:42.757Z,7.30
2023-03-01T10:15:18.172Z,8.50
2023-03-01T10:18:09.553Z,8.30
2023-03-01T10:21:17.260Z,8.90
2023-03-01T10:23:55.000Z,8.30
2023-03-01T10:26:39.367Z,5.90
2023-03-01T10:29:17.354Z,9.90
2023-03-01T10:32:00.298Z,8.60
2023-03-01T10:34:36.571Z,8.50
2023-03-01T10:37:27.165Z,9.70
2023-03-01T10:40:11.994Z,11.50
2023-03-01T10:42:55.146Z,10.30
2023-03-01T10:45:41.797Z,8.10
2023-03-01T10:48:25.922Z,7.40
2023-03-01T10:51:05.101Z,11.00
2023-03-01T10:53:41.249Z,8.40
2023-03-01T10:56:16.959Z,9.70
2023-03-01T10:59:26.221Z,6.40
2023-03-01T11:02:25.067Z,7.20
2023-03-01T11:05:05.010Z,11.50
2023-03-01T11:07:52.541Z,11.10
2023-03-01T11:10:34.904Z,10.60
2023-03-01T11:13:24.703Z,10.90
2023-03-01T11:16:13.769Z,10.10
2023-03-01T11:19:01.852Z,8.70
2023-03-01T11:21:39.657Z,8.70
2023-03-01T11:24:20.845Z,8.20
2023-03-01T11:26:58.953Z,9.10
2023-03-01T11:29:48.598Z,7.20
2023-03-01T11:32:27.578Z,7.10
2023-03-01T11:35:22.480Z,4.80
2023-03-01T11:38:25.507Z,6.40
2023-03-01T11:41:23.099Z,4.70
2023-03-01T11:44:25.529Z,5.40
2023-03-01T11:47:42.704Z,4.50
2023-03-01T11:50:18.395Z,6.00
2023-03-01T11:53:28.355Z,7.60
2023-03-01T11:56:32.400Z,7.70
2023-03-01T11:59:42.542Z,5.20
2023-03-01T12:02:30.896Z,6.80
2023-03-01T12:05:27.065Z,9.20
2023-03-01T12:08:13.895Z,8.80
2023-03-01T12:11:23.085Z,7.60
2023-03-01T12:14:21.104Z,10.60
2023-03-01T12:17:34.605Z,7.00
2023-03-01T12:20:26.488Z,10.30
2023-03-01T12:23:25.530Z,8.50
2023-03-01T12:26:14.407Z,7.30
2023-03-01T12:29:01.253Z,7.60
2023-03-01T12:32:02.762Z,9.30
2023-03-01T12:35:14.275Z,9.00
2023-03-01T12:38:14.697Z,10.30
2023-03-01T12:41:11.575Z,10.70
2023-03-01T12:43:55.266Z,9.30
2023-03-01T12:46:48.205Z,9.40
2023-03-01T12:49:28.011Z,5.80
2023-03-01T12:52:10.911Z,8.30
2023-03-01T12:54:44.664Z,8.70
2023-03-01T12:57:41.329Z,7.90
2023-03-01T13:00:39.786Z,8.90
2023-03-01T13:03:30.454Z,7.70
2023-03-01T13:06:43.184Z,12.00
2023-03-01T13:09:52.955Z,8.30
2023-03-01T13:12:47.972Z,9.60
2023-03-01T13:15:31.248Z,8.40
2023-03-01T13:18:05.518Z,10.60
2023-03-01T13:20:51.255Z,8.10
2023-03-01T13:23:23.887Z,9.60
2023-03-01T13:26:02.041Z,11.10
2023-03-01T13:28:37.310Z,8.00
2023-03-01T13:31:13.088Z,6.20
2023-03-01T13:34:00.081Z,6.00
2023-03-01T13:36:40.422Z,9.60
2023-03-01T13:39:35.017Z,6.30
2023-03-01T13:42:38.990Z,10.50
2023-03-01T13:45:23.149Z,9.80
2023-03-01T13:48:05.773Z,9.30
2023-03-01T13:50:48.292Z,10.10
2023-03-01T13:53:29.267Z,10.40
2023-03-01T13:56:11.318Z,9.10
2023-03-01T14:01:34.087Z,10.60
2023-03-01T14:04:23.458Z,10.90
2023-03-01T14:07:12.858Z,7.60
2023-03-01T14:09:50.278Z,9.80
2023-03-01T14:12:44.961Z,10.60
2023-03-01T14:15:35.925Z,9.40
2023-03-01T14:18:33.092Z,9.60
2023-03-01T14:21:11.700Z,10.00
2023-03-01T14:23:45.905Z,11.00
2023-03-01T14:26:25.418Z,8.40
2023-03-01T14:28:58.937Z,9.80
2023-03-01T14:31:41.021Z,7.40
2023-03-01T14:34:28.810Z,10.70
2023-03-01T14:37:28.348Z,10.70
2023-03-01T14:40:03.392Z,11.10
2023-03-01T14:42:39.744Z,8.60
2023-03-01T14:45:16.952Z,8.00
2023-03-01T14:47:50.811Z,11.10
2023-03-01T14:50:30.776Z,8.40
2023-03-01T14:53:08.664Z,9.00
2023-03-01T14:55:46.272Z,10.70
2023-03-01T14:58:22.425Z,11.50
2023-03-01T15:01:04.199Z,7.70
2023-03-01T15:03:49.159Z,11.40
2023-03-01T15:06:25.726Z,11.30
2023-03-01T15:09:00.005Z,8.60
2023-03-01T15:11:35.230Z,8.10
2023-03-01T15:14:52.244Z,10.80
2023-03-01T15:17:32.168Z,11.90
2023-03-01T15:20:08.055Z,9.90
2023-03-01T15:22:41.405Z,10.90
2023-03-01T15:25:21.487Z,11.50
2023-03-01T15:27:56.328Z,10.90
2023-03-01T15:30:42.848Z,10.70
2023-03-01T15:33:25.128Z,8.40
2023-03-01T15:35:59.727Z,8.20
2023-03-01T15:38:44.668Z,13.40
2023-03-01T15:41:36.930Z,12.70
2023-03-01T15:44:41.581Z,8.40
2023-03-01T15:47:31.258Z,13.40
2023-03-01T15:50:05.414Z,9.70
2023-03-01T15:52:45.640Z,9.80
2023-03-01T15:55:24.683Z,8.70
2023-03-01T15:58:22.130Z,10.90
2023-03-01T16:01:01.105Z,10.00
2023-03-01T16:03:35.215Z,11.50
2023-03-01T16:06:08.660Z,10.90
2023-03-01T16:08:43.364Z,12.80
2023-03-01T16:11:20.572Z,12.40
2023-03-01T16:13:54.150Z,8.80
2023-03-01T16:16:27.344Z,12.90
2023-03-01T16:19:01.103Z,9.80
2023-03-01T16:21:34.505Z,12.70
2023-03-01T16:24:08.214Z,12.60
2023-03-01T16:26:42.521Z,13.30
2023-03-01T16:29:17.122Z,13.60
2023-03-01T16:31:50.306Z,15.20
2023-03-01T16:34:23.998Z,10.80
2023-03-01T16:36:57.660Z,13.80
2023-03-01T16:39:31.666Z,16.00
2023-03-01T16:42:05.513Z,19.00
2023-03-01T16:44:39.403Z,18.40
2023-03-01T16:47:12.670Z,18.00
2023-03-01T16:49:46.238Z,17.60
2023-03-01T16:52:20.132Z,10.40
2023-03-01T16:54:52.832Z,16.70
2023-03-01T16:57:26.022Z,15.50
2023-03-01T16:59:59.566Z,20.70
2023-03-01T17:02:33.244Z,20.90
2023-03-01T17:05:07.556Z,20.00
2023-03-01T17:07:41.968Z,20.30
2023-03-01T17:10:15.547Z,19.10
2023-03-01T17:12:52.187Z,19.60
2023-03-01T17:15:25.453Z,19.10
2023-03-01T17:17:58.516Z,19.00
2023-03-01T17:20:31.534Z,18.60
2023-03-01T17:23:05.262Z,17.60
2023-03-01T17:25:38.873Z,19.20
2023-03-01T17:28:12.210Z,20.00
2023-03-01T17:30:48.973Z,19.90
2023-03-01T17:33:23.927Z,16.80
2023-03-01T17:35:57.429Z,20.00
2023-03-01T17:38:31.315Z,22.60
2023-03-01T17:41:05.878Z,19.00
2023-03-01T17:43:39.125Z,17.40
2023-03-01T17:46:12.442Z,19.30
2023-03-01T17:48:45.806Z,20.40
2023-03-01T17:51:19.354Z,20.60
2023-03-01T17:53:52.990Z,19.20
2023-03-01T17:56:26.853Z,17.30
2023-03-01T17:59:00.318Z,18.70
2023-03-01T18:01:36.106Z,19.00
2023-03-01T18:04:09.693Z,16.50
2023-03-01T18:06:43.490Z,17.80
2023-03-01T18:09:16.952Z,20.30
2023-03-01T18:11:50.277Z,22.90
2023-03-01T18:14:23.579Z,21.90
2023-03-01T18:16:57.365Z,21.50
2023-03-01T18:19:31.041Z,17.70
2023-03-01T18:22:04.586Z,24.70
2023-03-01T18:24:39.023Z,24.80
2023-03-01T18:27:12.913Z,25.30
2023-03-01T18:29:46.348Z,23.40
2023-03-01T18:32:19.636Z,22.50
2023-03-01T18:34:53.174Z,22.60
2023-03-01T18:37:27.360Z,21.20
2023-03-01T18:40:01.864Z,24.30
2023-03-01T18:42:36.852Z,24.00
2023-03-01T18:45:10.893Z,22.50
2023-03-01T18:47:45.502Z,22.90
2023-03-01T18:50:20.083Z,23.60
2023-03-01T18:52:57.047Z,25.00
2023-03-01T18:55:30.359Z,26.00
2023-03-01T18:58:03.809Z,25.70
2023-03-01T19:00:37.764Z,24.40
2023-03-01T19:03:12.318Z,24.20
2023-03-01T19:05:46.874Z,24.00
2023-03-01T19:08:19.985Z,23.50
2023-03-01T19:11:06.971Z,22.90
2023-03-01T19:13:41.926Z,22.80
2023-03-01T19:16:21.177Z,21.70
2023-03-01T19:18:57.419Z,23.30
2023-03-01T19:21:32.953Z,23.80
2023-03-01T19:24:08.096Z,22.60
2023-03-01T19:26:45.373Z,23.70
2023-03-01T19:29:19.798Z,23.50
2023-03-01T19:31:53.664Z,24.60
2023-03-01T19:34:27.505Z,23.40
2023-03-01T19:37:01.464Z,23.40
2023-03-01T19:39:35.007Z,27.10
2023-03-01T19:42:11.572Z,27.50
2023-03-01T19:44:45.310Z,27.50
2023-03-01T19:47:19.734Z,30.50
2023-03-01T19:49:53.542Z,29.60
2023-03-01T19:52:36.755Z,25.10
2023-03-01T19:55:10.395Z,24.30
2023-03-01T19:57:43.725Z,25.10
2023-03-01T20:00:17.857Z,24.80
2023-03-01T20:02:50.784Z,24.30
2023-03-01T20:05:28.589Z,24.50
2023-03-01T20:08:02.055Z,25.60
2023-03-01T20:10:36.348Z,24.60
2023-03-01T20:13:09.460Z,25.60
2023-03-01T20:15:44.706Z,24.70
2023-03-01T20:18:18.160Z,25.20
2023-03-01T20:20:54.729Z,25.20
2023-03-01T20:23:28.309Z,26.50
2023-03-01T20:26:16.087Z,26.90
2023-03-01T20:28:50.875Z,26.60
2023-03-01T20:31:30.117Z,26.60
2023-03-01T20:34:04.575Z,27.20
2023-03-01T20:36:39.286Z,25.50
2023-03-01T20:39:12.536Z,27.60
2023-03-01T20:41:46.430Z,26.30
2023-03-01T20:44:19.513Z,27.30
2023-03-01T20:46:53.187Z,27.00
2023-03-01T20:49:26.289Z,25.50
2023-03-01T20:51:59.819Z,27.20
2023-03-01T20:54:33.150Z,25.90
2023-03-01T20:57:05.971Z,26.30
2023-03-01T20:59:38.921Z,27.90
2023-03-01T21:02:13.406Z,28.30
2023-03-01T21:04:46.557Z,27.90
2023-03-01T21:07:19.706Z,26.20
2023-03-01T21:09:53.293Z,25.80
2023-03-01T21:12:26.488Z,25.90
2023-03-01T21:14:59.447Z,24.60
2023-03-01T21:17:32.596Z,23.60
2023-03-01T21:20:06.355Z,22.20
2023-03-01T21:22:39.235Z,26.20
2023-03-01T21:25:15.133Z,24.40
2023-03-01T21:27:47.779Z,24.40
2023-03-01T21:30:20.978Z,27.40
2023-03-01T21:32:54.161Z,22.80
2023-03-01T21:35:27.338Z,26.20
2023-03-01T21:37:59.949Z,27.90
2023-03-01T21:40:32.972Z,25.70
2023-03-01T21:43:06.129Z,25.90
2023-03-01T21:45:40.525Z,24.40
2023-03-01T21:48:13.637Z,23.10
2023-03-01T21:50:46.384Z,19.70
2023-03-01T21:53:19.989Z,23.30
2023-03-01T21:55:52.948Z,23.10
2023-03-01T21:58:28.619Z,21.60
2023-03-01T22:01:16.753Z,22.10
2023-03-01T22:03:49.829Z,23.10
2023-03-01T22:06:29.931Z,21.30
2023-03-01T22:09:07.328Z,23.50
2023-03-01T22:11:45.397Z,23.20
2023-03-01T22:14:19.728Z,24.10
2023-03-01T22:16:53.958Z,22.90
2023-03-01T22:19:29.218Z,23.00
2023-03-01T22:22:02.188Z,22.10
2023-03-01T22:24:35.545Z,21.00
2023-03-01T22:27:08.616Z,23.30
2023-03-01T22:29:41.881Z,22.30
2023-03-01T22:32:14.883Z,22.70
2023-03-01T22:34:48.369Z,22.50
2023-03-01T22:37:30.568Z,22.70
2023-03-01T22:42:35.612Z,21.20
2023-03-01T22:45:09.506Z,22.80
2023-03-01T22:47:42.103Z,26.30
2023-03-01T22:50:16.675Z,25.00
2023-03-01T22:52:49.915Z,26.00
2023-03-01T22:55:22.954Z,28.50
2023-03-01T22:57:56.266Z,29.40
2023-03-01T23:00:29.391Z,23.40
2023-03-01T23:03:02.234Z,22.00
2023-03-01T23:05:35.748Z,21.70
2023-03-01T23:08:08.859Z,20.70
2023-03-01T23:10:44.271Z,21.60
2023-03-01T23:13:17.344Z,21.60
2023-03-01T23:15:59.169Z,24.00
2023-03-01T23:18:32.598Z,23.20
2023-03-01T23:21:15.243Z,32.30
2023-03-01T23:23:48.698Z,27.50
2023-03-01T23:26:22.706Z,26.10
2023-03-01T23:28:56.309Z,23.50
2023-03-01T23:31:30.438Z,24.50
2023-03-01T23:34:03.455Z,24.30
2023-03-01T23:36:37.061Z,22.10
2023-03-01T23:39:10.615Z,20.00
2023-03-01T23:41:43.526Z,21.00
2023-03-01T23:44:22.124Z,22.80
2023-03-01T23:46:55.877Z,21.20
2023-03-01T23:49:29.177Z,21.00
2023-03-01T23:52:02.433Z,24.00
2023-03-01T23:54:36.715Z,23.70
2023-03-01T23:57:09.905Z,23.90
2023-03-01T23:59:49.389Z,25.10
